sensor_id;sensor_type;location;lat;lon;timestamp;pressure;altitude;pressure_sealevel;temperature;humidity
46642;BME280;32370;41.864;-88.124;2022-08-02T00:01:29;98514.65;;;26.71;53.45
46642;BME280;32370;41.864;-88.124;2022-08-02T00:03:57;98517.85;;;26.61;54.00
46642;BME280;32370;41.864;-88.124;2022-08-02T00:06:24;98515.39;;;26.55;54.09
46642;BME280;32370;41.864;-88.124;2022-08-02T00:08:53;98521.71;;;26.34;54.70
46642;BME280;32370;41.864;-88.124;2022-08-02T00:11:21;98524.50;;;26.40;54.35
46642;BME280;32370;41.864;-88.124;2022-08-02T00:13:49;98518.34;;;26.42;54.39
46642;BME280;32370;41.864;-88.124;2022-08-02T00:16:17;98522.02;;;26.42;54.11
46642;BME280;32370;41.864;-88.124;2022-08-02T00:18:45;98522.48;;;26.17;54.56
46642;BME280;32370;41.864;-88.124;2022-08-02T00:21:12;98521.95;;;26.20;54.59
46642;BME280;32370;41.864;-88.124;2022-08-02T00:23:40;98521.29;;;26.07;55.30
46642;BME280;32370;41.864;-88.124;2022-08-02T00:26:08;98516.95;;;26.13;55.60
46642;BME280;32370;41.864;-88.124;2022-08-02T00:28:35;98517.28;;;26.02;55.53
46642;BME280;32370;41.864;-88.124;2022-08-02T00:31:03;98515.68;;;26.26;55.72
46642;BME280;32370;41.864;-88.124;2022-08-02T00:33:31;98521.46;;;26.33;55.41
46642;BME280;32370;41.864;-88.124;2022-08-02T00:35:58;98532.86;;;26.45;55.04
46642;BME280;32370;41.864;-88.124;2022-08-02T00:38:26;98531.00;;;26.19;55.36
46642;BME280;32370;41.864;-88.124;2022-08-02T00:40:54;98528.43;;;26.21;55.44
46642;BME280;32370;41.864;-88.124;2022-08-02T00:43:21;98527.25;;;26.31;55.14
46642;BME280;32370;41.864;-88.124;2022-08-02T00:45:49;98527.85;;;26.01;55.51
46642;BME280;32370;41.864;-88.124;2022-08-02T00:48:17;98525.62;;;26.59;54.85
46642;BME280;32370;41.864;-88.124;2022-08-02T00:50:44;98524.03;;;26.31;54.23
46642;BME280;32370;41.864;-88.124;2022-08-02T00:53:12;98527.56;;;25.64;55.17
46642;BME280;32370;41.864;-88.124;2022-08-02T00:55:40;98528.09;;;25.74;55.43
46642;BME280;32370;41.864;-88.124;2022-08-02T00:58:08;98535.25;;;25.75;55.42
46642;BME280;32370;41.864;-88.124;2022-08-02T01:00:36;98533.65;;;25.45;55.60
46642;BME280;32370;41.864;-88.124;2022-08-02T01:03:03;98533.98;;;25.76;55.28
46642;BME280;32370;41.864;-88.124;2022-08-02T01:05:31;98533.69;;;25.01;55.69
46642;BME280;32370;41.864;-88.124;2022-08-02T01:07:59;98531.71;;;25.47;55.89
46642;BME280;32370;41.864;-88.124;2022-08-02T01:10:26;98534.10;;;26.02;55.22
46642;BME280;32370;41.864;-88.124;2022-08-02T01:12:54;98535.05;;;25.87;54.80
46642;BME280;32370;41.864;-88.124;2022-08-02T01:15:25;98541.21;;;25.82;54.76
46642;BME280;32370;41.864;-88.124;2022-08-02T01:17:59;98543.75;;;25.64;54.83
46642;BME280;32370;41.864;-88.124;2022-08-02T01:20:45;98546.13;;;25.17;55.38
46642;BME280;32370;41.864;-88.124;2022-08-02T01:23:30;98544.91;;;25.73;54.95
46642;BME280;32370;41.864;-88.124;2022-08-02T01:26:21;98550.42;;;25.62;54.69
46642;BME280;32370;41.864;-88.124;2022-08-02T01:28:58;98552.50;;;25.62;55.30
46642;BME280;32370;41.864;-88.124;2022-08-02T01:31:33;98552.50;;;25.47;55.04
46642;BME280;32370;41.864;-88.124;2022-08-02T01:34:05;98559.46;;;25.85;55.10
46642;BME280;32370;41.864;-88.124;2022-08-02T01:36:54;98566.94;;;25.28;55.27
46642;BME280;32370;41.864;-88.124;2022-08-02T01:39:26;98566.24;;;25.41;55.00
46642;BME280;32370;41.864;-88.124;2022-08-02T01:41:56;98571.46;;;25.26;55.97
46642;BME280;32370;41.864;-88.124;2022-08-02T01:44:27;98570.12;;;25.08;55.95
46642;BME280;32370;41.864;-88.124;2022-08-02T01:46:59;98574.17;;;25.49;55.96
46642;BME280;32370;41.864;-88.124;2022-08-02T01:49:29;98576.30;;;25.47;55.81
46642;BME280;32370;41.864;-88.124;2022-08-02T01:52:00;98576.64;;;24.70;56.51
46642;BME280;32370;41.864;-88.124;2022-08-02T01:54:32;98582.42;;;25.31;56.20
46642;BME280;32370;41.864;-88.124;2022-08-02T01:57:03;98587.03;;;25.09;56.85
46642;BME280;32370;41.864;-88.124;2022-08-02T01:59:32;98592.94;;;24.79;56.81
46642;BME280;32370;41.864;-88.124;2022-08-02T02:02:01;98597.69;;;24.82;56.86
46642;BME280;32370;41.864;-88.124;2022-08-02T02:04:31;98602.58;;;24.84;57.32
46642;BME280;32370;41.864;-88.124;2022-08-02T02:07:00;98609.62;;;24.85;57.55
46642;BME280;32370;41.864;-88.124;2022-08-02T02:09:30;98610.12;;;25.06;57.64
46642;BME280;32370;41.864;-88.124;2022-08-02T02:12:02;98608.92;;;24.62;57.92
46642;BME280;32370;41.864;-88.124;2022-08-02T02:14:32;98608.19;;;24.78;57.89
46642;BME280;32370;41.864;-88.124;2022-08-02T02:17:02;98611.56;;;24.69;58.79
46642;BME280;32370;41.864;-88.124;2022-08-02T02:19:33;98619.46;;;24.51;59.25
46642;BME280;32370;41.864;-88.124;2022-08-02T02:22:02;98625.57;;;24.42;59.44
46642;BME280;32370;41.864;-88.124;2022-08-02T02:24:31;98624.03;;;24.36;59.56
46642;BME280;32370;41.864;-88.124;2022-08-02T02:27:00;98622.06;;;24.61;59.58
46642;BME280;32370;41.864;-88.124;2022-08-02T02:29:31;98626.87;;;24.23;59.94
46642;BME280;32370;41.864;-88.124;2022-08-02T02:32:00;98632.17;;;24.50;59.75
46642;BME280;32370;41.864;-88.124;2022-08-02T02:34:32;98641.26;;;24.28;60.12
46642;BME280;32370;41.864;-88.124;2022-08-02T02:37:04;98643.15;;;24.20;60.30
46642;BME280;32370;41.864;-88.124;2022-08-02T02:39:33;98644.38;;;23.96;60.43
46642;BME280;32370;41.864;-88.124;2022-08-02T02:42:04;98640.73;;;23.83;60.74
46642;BME280;32370;41.864;-88.124;2022-08-02T02:44:35;98637.19;;;23.85;61.19
46642;BME280;32370;41.864;-88.124;2022-08-02T02:47:06;98642.85;;;23.76;61.37
46642;BME280;32370;41.864;-88.124;2022-08-02T02:49:36;98646.70;;;23.65;61.55
46642;BME280;32370;41.864;-88.124;2022-08-02T02:52:05;98647.97;;;23.57;61.24
46642;BME280;32370;41.864;-88.124;2022-08-02T02:54:34;98651.31;;;23.36;61.29
46642;BME280;32370;41.864;-88.124;2022-08-02T02:57:05;98654.71;;;23.74;61.50
46642;BME280;32370;41.864;-88.124;2022-08-02T02:59:34;98655.70;;;23.66;61.66
46642;BME280;32370;41.864;-88.124;2022-08-02T03:02:03;98659.44;;;23.85;61.15
46642;BME280;32370;41.864;-88.124;2022-08-02T03:04:31;98660.51;;;23.32;61.81
46642;BME280;32370;41.864;-88.124;2022-08-02T03:07:00;98656.74;;;23.52;62.03
46642;BME280;32370;41.864;-88.124;2022-08-02T03:09:28;98666.28;;;23.05;63.76
46642;BME280;32370;41.864;-88.124;2022-08-02T03:11:56;98665.23;;;22.36;66.56
46642;BME280;32370;41.864;-88.124;2022-08-02T03:14:24;98664.22;;;22.43;66.04
46642;BME280;32370;41.864;-88.124;2022-08-02T03:16:53;98669.29;;;22.15;66.91
46642;BME280;32370;41.864;-88.124;2022-08-02T03:19:22;98668.08;;;22.39;67.10
46642;BME280;32370;41.864;-88.124;2022-08-02T03:21:50;98668.35;;;22.30;66.47
46642;BME280;32370;41.864;-88.124;2022-08-02T03:24:18;98669.85;;;22.45;67.39
46642;BME280;32370;41.864;-88.124;2022-08-02T03:26:46;98669.66;;;22.00;68.23
46642;BME280;32370;41.864;-88.124;2022-08-02T03:29:14;98667.82;;;22.39;67.65
46642;BME280;32370;41.864;-88.124;2022-08-02T03:31:44;98661.76;;;22.57;66.81
46642;BME280;32370;41.864;-88.124;2022-08-02T03:34:12;98659.29;;;22.69;66.25
46642;BME280;32370;41.864;-88.124;2022-08-02T03:36:40;98666.76;;;22.57;66.59
46642;BME280;32370;41.864;-88.124;2022-08-02T03:39:09;98664.37;;;22.10;67.94
46642;BME280;32370;41.864;-88.124;2022-08-02T03:41:37;98669.49;;;22.30;68.35
46642;BME280;32370;41.864;-88.124;2022-08-02T03:44:06;98674.02;;;22.42;67.72
46642;BME280;32370;41.864;-88.124;2022-08-02T03:46:34;98676.21;;;22.66;67.63
46642;BME280;32370;41.864;-88.124;2022-08-02T03:49:03;98678.26;;;22.40;67.67
46642;BME280;32370;41.864;-88.124;2022-08-02T03:51:33;98676.00;;;22.26;69.70
46642;BME280;32370;41.864;-88.124;2022-08-02T03:54:01;98675.88;;;22.24;69.27
46642;BME280;32370;41.864;-88.124;2022-08-02T03:56:29;98674.09;;;22.04;68.95
46642;BME280;32370;41.864;-88.124;2022-08-02T03:59:07;98674.94;;;22.38;68.68
46642;BME280;32370;41.864;-88.124;2022-08-02T04:01:36;98676.47;;;22.03;68.95
46642;BME280;32370;41.864;-88.124;2022-08-02T04:04:04;98670.87;;;21.92;69.24
46642;BME280;32370;41.864;-88.124;2022-08-02T04:06:32;98668.67;;;22.30;68.88
46642;BME280;32370;41.864;-88.124;2022-08-02T04:09:00;98666.27;;;22.43;68.66
46642;BME280;32370;41.864;-88.124;2022-08-02T04:11:28;98667.74;;;22.01;69.21
46642;BME280;32370;41.864;-88.124;2022-08-02T04:13:57;98670.26;;;21.75;71.53
46642;BME280;32370;41.864;-88.124;2022-08-02T04:16:33;98668.84;;;21.55;72.58
46642;BME280;32370;41.864;-88.124;2022-08-02T04:19:03;98666.59;;;21.75;71.66
46642;BME280;32370;41.864;-88.124;2022-08-02T04:21:36;98672.09;;;21.81;71.30
46642;BME280;32370;41.864;-88.124;2022-08-02T04:24:07;98674.09;;;22.14;70.98
46642;BME280;32370;41.864;-88.124;2022-08-02T04:26:37;98682.35;;;21.91;71.04
46642;BME280;32370;41.864;-88.124;2022-08-02T04:29:05;98684.71;;;22.14;71.06
46642;BME280;32370;41.864;-88.124;2022-08-02T04:31:33;98685.34;;;22.14;71.13
46642;BME280;32370;41.864;-88.124;2022-08-02T04:34:02;98685.83;;;22.25;70.98
46642;BME280;32370;41.864;-88.124;2022-08-02T04:36:30;98685.15;;;22.29;71.54
46642;BME280;32370;41.864;-88.124;2022-08-02T04:38:59;98681.59;;;21.98;71.64
46642;BME280;32370;41.864;-88.124;2022-08-02T04:41:38;98684.41;;;21.84;72.21
46642;BME280;32370;41.864;-88.124;2022-08-02T04:44:06;98684.09;;;21.94;72.06
46642;BME280;32370;41.864;-88.124;2022-08-02T04:46:35;98678.73;;;21.88;72.18
46642;BME280;32370;41.864;-88.124;2022-08-02T04:49:05;98677.58;;;21.62;73.02
46642;BME280;32370;41.864;-88.124;2022-08-02T04:51:34;98678.12;;;21.33;73.32
46642;BME280;32370;41.864;-88.124;2022-08-02T04:54:03;98677.30;;;21.35;73.90
46642;BME280;32370;41.864;-88.124;2022-08-02T04:56:32;98676.94;;;21.53;74.23
46642;BME280;32370;41.864;-88.124;2022-08-02T04:59:00;98679.87;;;21.38;74.86
46642;BME280;32370;41.864;-88.124;2022-08-02T05:01:28;98683.61;;;21.35;74.50
46642;BME280;32370;41.864;-88.124;2022-08-02T05:04:01;98679.68;;;21.26;74.71
46642;BME280;32370;41.864;-88.124;2022-08-02T05:06:29;98680.59;;;21.51;74.84
46642;BME280;32370;41.864;-88.124;2022-08-02T05:08:58;98682.31;;;21.14;75.18
46642;BME280;32370;41.864;-88.124;2022-08-02T05:11:31;98682.82;;;21.36;75.53
46642;BME280;32370;41.864;-88.124;2022-08-02T05:13:58;98680.07;;;21.30;75.66
46642;BME280;32370;41.864;-88.124;2022-08-02T05:16:27;98687.01;;;20.88;76.05
46642;BME280;32370;41.864;-88.124;2022-08-02T05:18:55;98694.93;;;21.15;76.20
46642;BME280;32370;41.864;-88.124;2022-08-02T05:21:23;98696.60;;;21.32;75.99
46642;BME280;32370;41.864;-88.124;2022-08-02T05:23:51;98698.13;;;21.19;76.28
46642;BME280;32370;41.864;-88.124;2022-08-02T05:26:32;98693.38;;;21.10;76.59
46642;BME280;32370;41.864;-88.124;2022-08-02T05:28:59;98693.06;;;21.05;76.66
46642;BME280;32370;41.864;-88.124;2022-08-02T05:31:27;98693.89;;;21.00;77.09
46642;BME280;32370;41.864;-88.124;2022-08-02T05:33:55;98699.83;;;21.04;77.66
46642;BME280;32370;41.864;-88.124;2022-08-02T05:36:22;98703.38;;;20.75;78.16
46642;BME280;32370;41.864;-88.124;2022-08-02T05:38:51;98697.86;;;20.71;78.16
46642;BME280;32370;41.864;-88.124;2022-08-02T05:41:19;98695.90;;;21.08;77.82
46642;BME280;32370;41.864;-88.124;2022-08-02T05:43:47;98695.44;;;20.71;78.65
46642;BME280;32370;41.864;-88.124;2022-08-02T05:46:15;98699.67;;;20.52;79.68
46642;BME280;32370;41.864;-88.124;2022-08-02T05:48:43;98704.97;;;20.56;79.66
46642;BME280;32370;41.864;-88.124;2022-08-02T05:51:20;98704.26;;;20.61;80.45
46642;BME280;32370;41.864;-88.124;2022-08-02T05:53:53;98708.34;;;20.79;79.85
46642;BME280;32370;41.864;-88.124;2022-08-02T05:56:24;98711.72;;;19.79;83.27
46642;BME280;32370;41.864;-88.124;2022-08-02T05:59:01;98703.13;;;20.58;81.17
46642;BME280;32370;41.864;-88.124;2022-08-02T06:01:33;98695.54;;;20.56;80.94
46642;BME280;32370;41.864;-88.124;2022-08-02T06:04:05;98700.14;;;20.63;80.64
46642;BME280;32370;41.864;-88.124;2022-08-02T06:06:34;98702.92;;;20.57;80.28
46642;BME280;32370;41.864;-88.124;2022-08-02T06:09:07;98703.42;;;20.54;80.42
46642;BME280;32370;41.864;-88.124;2022-08-02T06:11:38;98702.47;;;20.85;80.21
46642;BME280;32370;41.864;-88.124;2022-08-02T06:14:10;98704.82;;;20.68;80.62
46642;BME280;32370;41.864;-88.124;2022-08-02T06:16:39;98706.37;;;20.50;81.11
46642;BME280;32370;41.864;-88.124;2022-08-02T06:19:08;98713.89;;;20.41;81.44
46642;BME280;32370;41.864;-88.124;2022-08-02T06:21:38;98712.79;;;20.42;81.48
46642;BME280;32370;41.864;-88.124;2022-08-02T06:24:09;98704.27;;;20.16;81.47
46642;BME280;32370;41.864;-88.124;2022-08-02T06:26:45;98704.03;;;20.25;82.02
46642;BME280;32370;41.864;-88.124;2022-08-02T06:29:15;98706.86;;;20.10;82.78
46642;BME280;32370;41.864;-88.124;2022-08-02T06:31:44;98712.76;;;19.80;83.39
46642;BME280;32370;41.864;-88.124;2022-08-02T06:34:12;98715.82;;;19.85;83.06
46642;BME280;32370;41.864;-88.124;2022-08-02T06:36:46;98714.53;;;19.87;82.97
46642;BME280;32370;41.864;-88.124;2022-08-02T06:39:20;98712.49;;;20.17;82.57
46642;BME280;32370;41.864;-88.124;2022-08-02T06:41:51;98710.92;;;20.23;82.35
46642;BME280;32370;41.864;-88.124;2022-08-02T06:44:20;98713.70;;;20.40;82.60
46642;BME280;32370;41.864;-88.124;2022-08-02T06:46:48;98716.98;;;20.13;82.62
46642;BME280;32370;41.864;-88.124;2022-08-02T06:49:16;98717.00;;;20.10;82.75
46642;BME280;32370;41.864;-88.124;2022-08-02T06:51:44;98715.84;;;19.90;83.15
46642;BME280;32370;41.864;-88.124;2022-08-02T06:54:11;98716.46;;;19.98;83.12
46642;BME280;32370;41.864;-88.124;2022-08-02T06:56:39;98716.41;;;19.78;83.01
46642;BME280;32370;41.864;-88.124;2022-08-02T06:59:07;98717.48;;;19.87;83.38
46642;BME280;32370;41.864;-88.124;2022-08-02T07:01:35;98717.63;;;19.81;83.76
46642;BME280;32370;41.864;-88.124;2022-08-02T07:04:03;98714.24;;;19.82;83.91
46642;BME280;32370;41.864;-88.124;2022-08-02T07:06:31;98711.59;;;19.80;83.91
46642;BME280;32370;41.864;-88.124;2022-08-02T07:08:58;98705.33;;;19.59;84.57
46642;BME280;32370;41.864;-88.124;2022-08-02T07:11:26;98706.56;;;19.94;84.38
46642;BME280;32370;41.864;-88.124;2022-08-02T07:13:54;98711.89;;;19.78;84.73
46642;BME280;32370;41.864;-88.124;2022-08-02T07:16:21;98715.35;;;20.15;84.50
46642;BME280;32370;41.864;-88.124;2022-08-02T07:18:49;98717.72;;;19.88;84.44
46642;BME280;32370;41.864;-88.124;2022-08-02T07:21:17;98724.80;;;19.94;84.35
46642;BME280;32370;41.864;-88.124;2022-08-02T07:23:45;98726.89;;;20.18;84.42
46642;BME280;32370;41.864;-88.124;2022-08-02T07:26:13;98728.79;;;19.95;84.30
46642;BME280;32370;41.864;-88.124;2022-08-02T07:28:41;98738.62;;;19.80;84.76
46642;BME280;32370;41.864;-88.124;2022-08-02T07:31:09;98736.45;;;19.79;84.90
46642;BME280;32370;41.864;-88.124;2022-08-02T07:33:37;98733.28;;;19.39;85.31
46642;BME280;32370;41.864;-88.124;2022-08-02T07:36:05;98735.92;;;19.89;84.77
46642;BME280;32370;41.864;-88.124;2022-08-02T07:38:33;98736.84;;;19.88;84.62
46642;BME280;32370;41.864;-88.124;2022-08-02T07:41:00;98736.52;;;19.90;84.97
46642;BME280;32370;41.864;-88.124;2022-08-02T07:43:28;98741.34;;;19.90;85.23
46642;BME280;32370;41.864;-88.124;2022-08-02T07:45:56;98744.07;;;19.57;85.36
46642;BME280;32370;41.864;-88.124;2022-08-02T07:48:24;98743.78;;;19.32;86.17
46642;BME280;32370;41.864;-88.124;2022-08-02T07:50:51;98748.84;;;19.50;86.53
46642;BME280;32370;41.864;-88.124;2022-08-02T07:53:19;98750.73;;;19.48;86.56
46642;BME280;32370;41.864;-88.124;2022-08-02T07:55:47;98749.70;;;19.41;86.13
46642;BME280;32370;41.864;-88.124;2022-08-02T07:58:15;98751.48;;;19.74;85.68
46642;BME280;32370;41.864;-88.124;2022-08-02T08:00:43;98750.70;;;19.56;85.96
46642;BME280;32370;41.864;-88.124;2022-08-02T08:03:11;98754.93;;;19.54;86.14
46642;BME280;32370;41.864;-88.124;2022-08-02T08:05:39;98755.64;;;19.36;86.60
46642;BME280;32370;41.864;-88.124;2022-08-02T08:08:06;98756.11;;;19.33;86.79
46642;BME280;32370;41.864;-88.124;2022-08-02T08:10:34;98751.55;;;19.30;86.93
46642;BME280;32370;41.864;-88.124;2022-08-02T08:13:03;98749.01;;;19.29;86.92
46642;BME280;32370;41.864;-88.124;2022-08-02T08:15:30;98751.90;;;19.24;87.09
46642;BME280;32370;41.864;-88.124;2022-08-02T08:17:58;98759.38;;;19.01;88.16
46642;BME280;32370;41.864;-88.124;2022-08-02T08:20:27;98761.30;;;18.96;87.87
46642;BME280;32370;41.864;-88.124;2022-08-02T08:22:55;98760.06;;;19.10;87.33
46642;BME280;32370;41.864;-88.124;2022-08-02T08:25:25;98759.00;;;18.97;87.44
46642;BME280;32370;41.864;-88.124;2022-08-02T08:27:54;98757.62;;;19.06;87.91
46642;BME280;32370;41.864;-88.124;2022-08-02T08:30:22;98757.11;;;19.17;87.65
46642;BME280;32370;41.864;-88.124;2022-08-02T08:32:50;98757.44;;;19.11;87.76
46642;BME280;32370;41.864;-88.124;2022-08-02T08:35:18;98756.77;;;18.83;87.80
46642;BME280;32370;41.864;-88.124;2022-08-02T08:37:46;98756.33;;;19.07;87.74
46642;BME280;32370;41.864;-88.124;2022-08-02T08:40:14;98755.58;;;19.03;88.01
46642;BME280;32370;41.864;-88.124;2022-08-02T08:42:41;98753.29;;;18.91;88.29
46642;BME280;32370;41.864;-88.124;2022-08-02T08:45:10;98758.88;;;18.85;87.81
46642;BME280;32370;41.864;-88.124;2022-08-02T08:47:40;98758.07;;;18.91;88.01
46642;BME280;32370;41.864;-88.124;2022-08-02T08:50:17;98758.29;;;19.09;87.56
46642;BME280;32370;41.864;-88.124;2022-08-02T08:52:48;98763.24;;;18.87;87.91
46642;BME280;32370;41.864;-88.124;2022-08-02T08:55:22;98764.01;;;18.88;87.90
46642;BME280;32370;41.864;-88.124;2022-08-02T08:57:50;98763.18;;;18.86;87.94
46642;BME280;32370;41.864;-88.124;2022-08-02T09:00:21;98757.56;;;18.95;87.79
46642;BME280;32370;41.864;-88.124;2022-08-02T09:02:49;98757.53;;;18.91;87.71
46642;BME280;32370;41.864;-88.124;2022-08-02T09:05:17;98759.89;;;19.05;87.44
46642;BME280;32370;41.864;-88.124;2022-08-02T09:07:47;98755.71;;;19.05;87.30
46642;BME280;32370;41.864;-88.124;2022-08-02T09:10:35;98753.75;;;19.36;86.99
46642;BME280;32370;41.864;-88.124;2022-08-02T09:13:09;98757.24;;;19.14;86.82
46642;BME280;32370;41.864;-88.124;2022-08-02T09:15:39;98760.00;;;19.02;87.21
46642;BME280;32370;41.864;-88.124;2022-08-02T09:18:08;98764.00;;;18.72;88.04
46642;BME280;32370;41.864;-88.124;2022-08-02T09:20:52;98766.54;;;18.59;88.71
46642;BME280;32370;41.864;-88.124;2022-08-02T09:23:20;98762.18;;;18.61;88.69
46642;BME280;32370;41.864;-88.124;2022-08-02T09:25:57;98765.74;;;18.59;88.77
46642;BME280;32370;41.864;-88.124;2022-08-02T09:28:28;98769.41;;;18.54;89.02
46642;BME280;32370;41.864;-88.124;2022-08-02T09:30:57;98770.27;;;18.68;88.52
46642;BME280;32370;41.864;-88.124;2022-08-02T09:33:29;98779.02;;;18.59;88.48
46642;BME280;32370;41.864;-88.124;2022-08-02T09:36:00;98776.44;;;18.81;87.99
46642;BME280;32370;41.864;-88.124;2022-08-02T09:38:28;98770.14;;;18.97;87.15
46642;BME280;32370;41.864;-88.124;2022-08-02T09:40:58;98764.60;;;19.21;86.99
46642;BME280;32370;41.864;-88.124;2022-08-02T09:43:37;98769.41;;;19.52;86.54
46642;BME280;32370;41.864;-88.124;2022-08-02T09:46:10;98772.38;;;19.50;86.47
46642;BME280;32370;41.864;-88.124;2022-08-02T09:48:49;98771.15;;;19.15;87.39
46642;BME280;32370;41.864;-88.124;2022-08-02T09:51:18;98775.06;;;18.74;89.05
46642;BME280;32370;41.864;-88.124;2022-08-02T09:53:48;98778.94;;;18.29;89.02
46642;BME280;32370;41.864;-88.124;2022-08-02T09:56:17;98780.29;;;18.56;89.26
46642;BME280;32370;41.864;-88.124;2022-08-02T09:58:45;98778.27;;;18.59;89.29
46642;BME280;32370;41.864;-88.124;2022-08-02T10:01:14;98776.20;;;18.68;89.00
46642;BME280;32370;41.864;-88.124;2022-08-02T10:03:59;98778.76;;;18.76;89.22
46642;BME280;32370;41.864;-88.124;2022-08-02T10:06:28;98784.88;;;18.35;89.81
46642;BME280;32370;41.864;-88.124;2022-08-02T10:08:57;98792.66;;;17.98;90.35
46642;BME280;32370;41.864;-88.124;2022-08-02T10:11:27;98797.37;;;18.10;90.37
46642;BME280;32370;41.864;-88.124;2022-08-02T10:13:55;98799.56;;;18.21;89.96
46642;BME280;32370;41.864;-88.124;2022-08-02T10:16:23;98802.25;;;18.47;88.84
46642;BME280;32370;41.864;-88.124;2022-08-02T10:18:53;98803.43;;;18.76;88.15
46642;BME280;32370;41.864;-88.124;2022-08-02T10:21:25;98808.06;;;18.52;89.75
46642;BME280;32370;41.864;-88.124;2022-08-02T10:23:57;98812.70;;;18.33;89.60
46642;BME280;32370;41.864;-88.124;2022-08-02T10:26:27;98821.23;;;18.62;89.29
46642;BME280;32370;41.864;-88.124;2022-08-02T10:28:56;98827.32;;;18.51;89.51
46642;BME280;32370;41.864;-88.124;2022-08-02T10:31:27;98828.58;;;18.67;88.89
46642;BME280;32370;41.864;-88.124;2022-08-02T10:33:59;98833.56;;;18.20;89.75
46642;BME280;32370;41.864;-88.124;2022-08-02T10:36:30;98835.93;;;18.29;90.32
46642;BME280;32370;41.864;-88.124;2022-08-02T10:39:01;98832.80;;;18.07;89.65
46642;BME280;32370;41.864;-88.124;2022-08-02T10:41:47;98834.34;;;18.44;89.96
46642;BME280;32370;41.864;-88.124;2022-08-02T10:44:26;98833.24;;;17.97;89.98
46642;BME280;32370;41.864;-88.124;2022-08-02T10:47:20;98831.80;;;17.99;89.82
46642;BME280;32370;41.864;-88.124;2022-08-02T10:49:50;98828.93;;;18.47;90.09
46642;BME280;32370;41.864;-88.124;2022-08-02T10:52:20;98821.52;;;18.09;89.47
46642;BME280;32370;41.864;-88.124;2022-08-02T10:54:52;98824.95;;;17.85;90.11
46642;BME280;32370;41.864;-88.124;2022-08-02T10:57:22;98833.54;;;17.88;91.28
46642;BME280;32370;41.864;-88.124;2022-08-02T10:59:54;98843.03;;;18.19;91.24
46642;BME280;32370;41.864;-88.124;2022-08-02T11:02:40;98844.48;;;18.27;91.03
46642;BME280;32370;41.864;-88.124;2022-08-02T11:05:11;98837.31;;;18.33;90.46
46642;BME280;32370;41.864;-88.124;2022-08-02T11:07:42;98838.75;;;18.15;90.29
46642;BME280;32370;41.864;-88.124;2022-08-02T11:10:42;98842.69;;;18.87;90.53
46642;BME280;32370;41.864;-88.124;2022-08-02T11:13:11;98845.37;;;18.27;90.90
46642;BME280;32370;41.864;-88.124;2022-08-02T11:15:58;98845.72;;;18.37;91.06
46642;BME280;32370;41.864;-88.124;2022-08-02T11:19:02;98842.41;;;18.31;90.54
46642;BME280;32370;41.864;-88.124;2022-08-02T11:21:31;98840.02;;;18.69;90.25
46642;BME280;32370;41.864;-88.124;2022-08-02T11:24:33;98835.35;;;19.48;88.88
46642;BME280;32370;41.864;-88.124;2022-08-02T11:27:02;98833.39;;;18.57;89.46
46642;BME280;32370;41.864;-88.124;2022-08-02T11:29:33;98835.11;;;18.89;89.37
46642;BME280;32370;41.864;-88.124;2022-08-02T11:32:01;98833.65;;;18.67;89.73
46642;BME280;32370;41.864;-88.124;2022-08-02T11:34:30;98842.52;;;18.79;90.48
46642;BME280;32370;41.864;-88.124;2022-08-02T11:36:59;98851.07;;;18.79;91.27
46642;BME280;32370;41.864;-88.124;2022-08-02T11:39:27;98848.91;;;18.82;92.02
46642;BME280;32370;41.864;-88.124;2022-08-02T11:41:56;98844.21;;;18.80;91.60
46642;BME280;32370;41.864;-88.124;2022-08-02T11:44:24;98845.69;;;19.24;89.99
46642;BME280;32370;41.864;-88.124;2022-08-02T11:46:54;98843.85;;;19.34;90.58
46642;BME280;32370;41.864;-88.124;2022-08-02T11:49:23;98849.13;;;19.60;90.36
46642;BME280;32370;41.864;-88.124;2022-08-02T11:51:52;98861.37;;;18.84;91.21
46642;BME280;32370;41.864;-88.124;2022-08-02T11:54:23;98863.22;;;19.11;92.20
46642;BME280;32370;41.864;-88.124;2022-08-02T11:56:52;98866.88;;;19.14;92.08
46642;BME280;32370;41.864;-88.124;2022-08-02T11:59:20;98865.86;;;19.73;89.50
46642;BME280;32370;41.864;-88.124;2022-08-02T12:01:47;98860.69;;;19.66;89.47
46642;BME280;32370;41.864;-88.124;2022-08-02T12:04:18;98861.30;;;19.33;91.32
46642;BME280;32370;41.864;-88.124;2022-08-02T12:06:56;98876.47;;;19.75;90.80
46642;BME280;32370;41.864;-88.124;2022-08-02T12:09:25;98884.39;;;19.65;91.36
46642;BME280;32370;41.864;-88.124;2022-08-02T12:11:55;98881.31;;;19.62;91.59
46642;BME280;32370;41.864;-88.124;2022-08-02T12:14:25;98878.90;;;20.09;89.66
46642;BME280;32370;41.864;-88.124;2022-08-02T12:16:54;98873.60;;;20.49;89.50
46642;BME280;32370;41.864;-88.124;2022-08-02T12:19:23;98872.77;;;20.16;90.10
46642;BME280;32370;41.864;-88.124;2022-08-02T12:22:11;98872.20;;;20.21;90.79
46642;BME280;32370;41.864;-88.124;2022-08-02T12:24:41;98868.15;;;20.05;91.20
46642;BME280;32370;41.864;-88.124;2022-08-02T12:27:25;98866.94;;;20.03;91.20
46642;BME280;32370;41.864;-88.124;2022-08-02T12:29:59;98861.45;;;20.58;90.89
46642;BME280;32370;41.864;-88.124;2022-08-02T12:32:27;98850.54;;;21.02;88.40
46642;BME280;32370;41.864;-88.124;2022-08-02T12:35:12;98849.05;;;21.30;86.91
46642;BME280;32370;41.864;-88.124;2022-08-02T12:37:42;98849.80;;;21.44;86.71
46642;BME280;32370;41.864;-88.124;2022-08-02T12:40:29;98855.27;;;21.47;85.90
46642;BME280;32370;41.864;-88.124;2022-08-02T12:42:58;98847.28;;;21.83;85.05
46642;BME280;32370;41.864;-88.124;2022-08-02T12:45:29;98840.46;;;21.71;83.28
46642;BME280;32370;41.864;-88.124;2022-08-02T12:47:59;98833.08;;;21.88;80.28
46642;BME280;32370;41.864;-88.124;2022-08-02T12:50:28;98827.33;;;22.35;77.91
46642;BME280;32370;41.864;-88.124;2022-08-02T12:53:05;98832.00;;;22.68;73.73
46642;BME280;32370;41.864;-88.124;2022-08-02T12:55:35;98834.87;;;22.94;69.56
46642;BME280;32370;41.864;-88.124;2022-08-02T12:58:04;98840.08;;;23.57;68.27